sensor_id;sensor_type;location;lat;lon;timestamp;pressure;altitude;pressure_sealevel;temperature
18713;BMP280;9485;49.386;8.674;2022-09-16T00:04:49;99850.34;;;19.03
18713;BMP280;9485;49.386;8.674;2022-09-16T00:10:11;99848.44;;;18.98
18713;BMP280;9485;49.386;8.674;2022-09-16T00:15:31;99848.59;;;18.92
18713;BMP280;9485;49.386;8.674;2022-09-16T00:20:53;99851.25;;;18.83
18713;BMP280;9485;49.386;8.674;2022-09-16T00:26:14;99844.72;;;18.75
18713;BMP280;9485;49.386;8.674;2022-09-16T00:31:35;99843.94;;;18.67
18713;BMP280;9485;49.386;8.674;2022-09-16T00:36:58;99844.47;;;18.58
18713;BMP280;9485;49.386;8.674;2022-09-16T00:42:21;99853.22;;;18.53
18713;BMP280;9485;49.386;8.674;2022-09-16T00:47:47;99848.97;;;18.46
18713;BMP280;9485;49.386;8.674;2022-09-16T00:53:15;99852.56;;;18.39
18713;BMP280;9485;49.386;8.674;2022-09-16T00:58:42;99857.25;;;18.29
18713;BMP280;9485;49.386;8.674;2022-09-16T01:04:09;99862.59;;;18.25
18713;BMP280;9485;49.386;8.674;2022-09-16T01:09:34;99861.41;;;18.21
18713;BMP280;9485;49.386;8.674;2022-09-16T01:14:56;99864.03;;;18.19
18713;BMP280;9485;49.386;8.674;2022-09-16T01:20:57;99858.66;;;18.15
18713;BMP280;9485;49.386;8.674;2022-09-16T01:26:52;99844.38;;;18.15
18713;BMP280;9485;49.386;8.674;2022-09-16T01:32:26;99851.59;;;18.09
18713;BMP280;9485;49.386;8.674;2022-09-16T01:37:59;99851.13;;;17.98
18713;BMP280;9485;49.386;8.674;2022-09-16T01:43:37;99859.44;;;17.88
18713;BMP280;9485;49.386;8.674;2022-09-16T01:49:15;99868.72;;;17.81
18713;BMP280;9485;49.386;8.674;2022-09-16T01:54:44;99856.13;;;17.77
18713;BMP280;9485;49.386;8.674;2022-09-16T02:00:11;99846.38;;;17.72
18713;BMP280;9485;49.386;8.674;2022-09-16T02:05:40;99832.66;;;17.71
18713;BMP280;9485;49.386;8.674;2022-09-16T02:11:08;99816.28;;;17.71
18713;BMP280;9485;49.386;8.674;2022-09-16T02:16:35;99769.06;;;17.70
18713;BMP280;9485;49.386;8.674;2022-09-16T02:22:06;99788.50;;;17.72
18713;BMP280;9485;49.386;8.674;2022-09-16T02:27:30;99832.53;;;17.76
18713;BMP280;9485;49.386;8.674;2022-09-16T02:32:58;99849.84;;;17.78
18713;BMP280;9485;49.386;8.674;2022-09-16T02:38:25;99843.03;;;17.81
18713;BMP280;9485;49.386;8.674;2022-09-16T02:43:50;99845.88;;;17.81
18713;BMP280;9485;49.386;8.674;2022-09-16T02:49:20;99851.09;;;17.90
18713;BMP280;9485;49.386;8.674;2022-09-16T02:54:54;99853.59;;;17.94
18713;BMP280;9485;49.386;8.674;2022-09-16T03:00:16;99858.38;;;17.99
18713;BMP280;9485;49.386;8.674;2022-09-16T03:06:11;99859.34;;;18.01
18713;BMP280;9485;49.386;8.674;2022-09-16T03:11:58;99870.63;;;18.07
18713;BMP280;9485;49.386;8.674;2022-09-16T03:17:43;99867.78;;;18.07
18713;BMP280;9485;49.386;8.674;2022-09-16T03:23:18;99853.88;;;18.10
18713;BMP280;9485;49.386;8.674;2022-09-16T03:28:54;99838.41;;;18.06
18713;BMP280;9485;49.386;8.674;2022-09-16T03:34:24;99840.16;;;18.09
18713;BMP280;9485;49.386;8.674;2022-09-16T03:39:50;99843.59;;;18.08
18713;BMP280;9485;49.386;8.674;2022-09-16T03:45:16;99845.09;;;18.08
18713;BMP280;9485;49.386;8.674;2022-09-16T03:50:37;99835.16;;;18.02
18713;BMP280;9485;49.386;8.674;2022-09-16T03:55:58;99834.25;;;18.07
18713;BMP280;9485;49.386;8.674;2022-09-16T04:01:20;99830.81;;;18.08
18713;BMP280;9485;49.386;8.674;2022-09-16T04:06:41;99830.06;;;18.08
18713;BMP280;9485;49.386;8.674;2022-09-16T04:12:02;99824.56;;;18.10
18713;BMP280;9485;49.386;8.674;2022-09-16T04:17:25;99822.44;;;18.10
18713;BMP280;9485;49.386;8.674;2022-09-16T04:22:45;99829.50;;;18.09
18713;BMP280;9485;49.386;8.674;2022-09-16T04:28:06;99826.25;;;18.06
18713;BMP280;9485;49.386;8.674;2022-09-16T04:33:30;99823.38;;;18.06
18713;BMP280;9485;49.386;8.674;2022-09-16T04:38:51;99824.81;;;17.92
18713;BMP280;9485;49.386;8.674;2022-09-16T04:44:12;99822.06;;;17.79
18713;BMP280;9485;49.386;8.674;2022-09-16T04:49:34;99830.16;;;17.67
18713;BMP280;9485;49.386;8.674;2022-09-16T04:54:55;99821.31;;;17.58
18713;BMP280;9485;49.386;8.674;2022-09-16T05:00:15;99819.31;;;17.45
18713;BMP280;9485;49.386;8.674;2022-09-16T05:05:37;99821.59;;;17.47
18713;BMP280;9485;49.386;8.674;2022-09-16T05:11:06;99824.28;;;17.45
18713;BMP280;9485;49.386;8.674;2022-09-16T05:16:28;99827.66;;;17.43
18713;BMP280;9485;49.386;8.674;2022-09-16T05:21:50;99815.72;;;17.45
18713;BMP280;9485;49.386;8.674;2022-09-16T05:27:11;99835.88;;;17.47
18713;BMP280;9485;49.386;8.674;2022-09-16T05:32:32;99830.16;;;17.47
18713;BMP280;9485;49.386;8.674;2022-09-16T05:37:54;99832.84;;;17.45
18713;BMP280;9485;49.386;8.674;2022-09-16T05:43:15;99831.84;;;17.42
18713;BMP280;9485;49.386;8.674;2022-09-16T05:48:35;99832.19;;;17.39
18713;BMP280;9485;49.386;8.674;2022-09-16T05:53:58;99832.41;;;17.41
18713;BMP280;9485;49.386;8.674;2022-09-16T05:59:19;99832.25;;;17.46
18713;BMP280;9485;49.386;8.674;2022-09-16T06:04:41;99841.78;;;17.49
18713;BMP280;9485;49.386;8.674;2022-09-16T06:10:05;99839.34;;;17.53
18713;BMP280;9485;49.386;8.674;2022-09-16T06:15:26;99841.09;;;17.56
18713;BMP280;9485;49.386;8.674;2022-09-16T06:20:47;99851.94;;;17.57
18713;BMP280;9485;49.386;8.674;2022-09-16T06:26:14;99847.63;;;17.64
18713;BMP280;9485;49.386;8.674;2022-09-16T06:31:36;99842.16;;;17.66
18713;BMP280;9485;49.386;8.674;2022-09-16T06:36:57;99833.94;;;17.62
18713;BMP280;9485;49.386;8.674;2022-09-16T06:42:19;99836.63;;;17.68
18713;BMP280;9485;49.386;8.674;2022-09-16T06:47:40;99841.63;;;17.75
18713;BMP280;9485;49.386;8.674;2022-09-16T06:53:00;99845.91;;;17.89
18713;BMP280;9485;49.386;8.674;2022-09-16T06:58:22;99823.75;;;18.02
18713;BMP280;9485;49.386;8.674;2022-09-16T07:03:48;99837.00;;;18.20
18713;BMP280;9485;49.386;8.674;2022-09-16T07:09:10;99822.13;;;18.49
18713;BMP280;9485;49.386;8.674;2022-09-16T07:14:32;99836.69;;;18.66
18713;BMP280;9485;49.386;8.674;2022-09-16T07:19:53;99834.09;;;18.83
18713;BMP280;9485;49.386;8.674;2022-09-16T07:25:14;99846.78;;;19.10
18713;BMP280;9485;49.386;8.674;2022-09-16T07:30:36;99840.91;;;19.38
18713;BMP280;9485;49.386;8.674;2022-09-16T07:36:00;99842.47;;;19.54
18713;BMP280;9485;49.386;8.674;2022-09-16T07:41:26;99844.34;;;19.66
18713;BMP280;9485;49.386;8.674;2022-09-16T07:46:49;99857.53;;;19.84
18713;BMP280;9485;49.386;8.674;2022-09-16T07:52:10;99857.34;;;20.04
18713;BMP280;9485;49.386;8.674;2022-09-16T07:57:30;99858.28;;;20.22
18713;BMP280;9485;49.386;8.674;2022-09-16T08:02:56;99855.56;;;20.38
18713;BMP280;9485;49.386;8.674;2022-09-16T08:08:17;99860.09;;;20.56
18713;BMP280;9485;49.386;8.674;2022-09-16T08:13:41;99854.94;;;20.62
18713;BMP280;9485;49.386;8.674;2022-09-16T08:19:04;99860.09;;;20.64
18713;BMP280;9485;49.386;8.674;2022-09-16T08:24:25;99869.47;;;20.57
18713;BMP280;9485;49.386;8.674;2022-09-16T08:29:46;99870.47;;;20.44
18713;BMP280;9485;49.386;8.674;2022-09-16T08:35:09;99877.56;;;20.36
18713;BMP280;9485;49.386;8.674;2022-09-16T08:40:34;99870.88;;;20.26
18713;BMP280;9485;49.386;8.674;2022-09-16T08:46:02;99882.19;;;20.17
18713;BMP280;9485;49.386;8.674;2022-09-16T08:51:30;99884.88;;;20.07
18713;BMP280;9485;49.386;8.674;2022-09-16T08:56:54;99878.94;;;20.05
18713;BMP280;9485;49.386;8.674;2022-09-16T09:02:41;99872.63;;;20.07
18713;BMP280;9485;49.386;8.674;2022-09-16T09:08:26;99880.09;;;20.10
18713;BMP280;9485;49.386;8.674;2022-09-16T09:14:22;99887.94;;;20.09
18713;BMP280;9485;49.386;8.674;2022-09-16T09:20:00;99883.34;;;20.06
18713;BMP280;9485;49.386;8.674;2022-09-16T09:25:45;99889.06;;;20.21
18713;BMP280;9485;49.386;8.674;2022-09-16T09:31:36;99869.16;;;20.38
18713;BMP280;9485;49.386;8.674;2022-09-16T09:37:25;99880.09;;;20.86
18713;BMP280;9485;49.386;8.674;2022-09-16T09:43:10;99867.69;;;21.79
18713;BMP280;9485;49.386;8.674;2022-09-16T09:48:47;99873.91;;;23.45
18713;BMP280;9485;49.386;8.674;2022-09-16T09:54:28;99885.13;;;23.76
18713;BMP280;9485;49.386;8.674;2022-09-16T10:00:10;99882.31;;;23.86
18713;BMP280;9485;49.386;8.674;2022-09-16T10:05:33;99868.19;;;23.54
18713;BMP280;9485;49.386;8.674;2022-09-16T10:10:58;99876.75;;;23.18
18713;BMP280;9485;49.386;8.674;2022-09-16T10:16:24;99878.66;;;23.06
18713;BMP280;9485;49.386;8.674;2022-09-16T10:21:49;99879.31;;;24.67
18713;BMP280;9485;49.386;8.674;2022-09-16T10:27:20;99877.84;;;25.62
18713;BMP280;9485;49.386;8.674;2022-09-16T10:32:53;99879.25;;;26.22
18713;BMP280;9485;49.386;8.674;2022-09-16T10:38:20;99875.78;;;26.14
18713;BMP280;9485;49.386;8.674;2022-09-16T10:43:48;99870.88;;;25.95
18713;BMP280;9485;49.386;8.674;2022-09-16T10:49:11;99879.25;;;25.52
18713;BMP280;9485;49.386;8.674;2022-09-16T10:54:32;99880.22;;;25.07
18713;BMP280;9485;49.386;8.674;2022-09-16T11:00:01;99867.59;;;25.02
18713;BMP280;9485;49.386;8.674;2022-09-16T11:05:31;99874.44;;;25.07
18713;BMP280;9485;49.386;8.674;2022-09-16T11:11:06;99873.53;;;24.95
18713;BMP280;9485;49.386;8.674;2022-09-16T11:16:55;99861.38;;;24.87
18713;BMP280;9485;49.386;8.674;2022-09-16T11:22:27;99860.91;;;25.00
18713;BMP280;9485;49.386;8.674;2022-09-16T11:28:05;99862.91;;;24.88
18713;BMP280;9485;49.386;8.674;2022-09-16T11:33:40;99859.25;;;24.69
18713;BMP280;9485;49.386;8.674;2022-09-16T11:39:21;99854.53;;;25.01
18713;BMP280;9485;49.386;8.674;2022-09-16T11:44:50;99861.78;;;26.82
18713;BMP280;9485;49.386;8.674;2022-09-16T11:50:29;99871.69;;;28.92
18713;BMP280;9485;49.386;8.674;2022-09-16T11:55:57;99861.00;;;30.37
18713;BMP280;9485;49.386;8.674;2022-09-16T12:01:31;99856.19;;;31.54
18713;BMP280;9485;49.386;8.674;2022-09-16T12:07:00;99847.66;;;31.74
18713;BMP280;9485;49.386;8.674;2022-09-16T12:12:32;99839.38;;;32.14
18713;BMP280;9485;49.386;8.674;2022-09-16T12:17:56;99839.34;;;31.53
18713;BMP280;9485;49.386;8.674;2022-09-16T12:23:22;99813.97;;;31.27
18713;BMP280;9485;49.386;8.674;2022-09-16T12:28:52;99823.72;;;31.33
18713;BMP280;9485;49.386;8.674;2022-09-16T12:34:19;99819.06;;;30.01
18713;BMP280;9485;49.386;8.674;2022-09-16T12:39:41;99831.88;;;28.59
18713;BMP280;9485;49.386;8.674;2022-09-16T12:45:35;99824.94;;;27.27
18713;BMP280;9485;49.386;8.674;2022-09-16T12:51:39;99824.34;;;26.12
18713;BMP280;9485;49.386;8.674;2022-09-16T12:57:27;99816.94;;;25.70
18713;BMP280;9485;49.386;8.674;2022-09-16T13:02:57;99819.44;;;26.15
18713;BMP280;9485;49.386;8.674;2022-09-16T13:08:22;99822.84;;;26.53
18713;BMP280;9485;49.386;8.674;2022-09-16T13:13:47;99816.00;;;27.45
18713;BMP280;9485;49.386;8.674;2022-09-16T13:19:31;99814.53;;;28.24
18713;BMP280;9485;49.386;8.674;2022-09-16T13:25:05;99809.56;;;28.75
18713;BMP280;9485;49.386;8.674;2022-09-16T13:30:35;99800.31;;;29.14
18713;BMP280;9485;49.386;8.674;2022-09-16T13:36:27;99809.59;;;29.24
18713;BMP280;9485;49.386;8.674;2022-09-16T13:41:49;99803.44;;;28.57
18713;BMP280;9485;49.386;8.674;2022-09-16T13:47:28;99800.66;;;27.54
18713;BMP280;9485;49.386;8.674;2022-09-16T13:52:54;99788.50;;;26.59
18713;BMP280;9485;49.386;8.674;2022-09-16T13:58:23;99781.88;;;25.84
18713;BMP280;9485;49.386;8.674;2022-09-16T14:03:57;99782.19;;;25.49
18713;BMP280;9485;49.386;8.674;2022-09-16T14:09:34;99793.94;;;25.81
18713;BMP280;9485;49.386;8.674;2022-09-16T14:15:21;99802.22;;;25.07
18713;BMP280;9485;49.386;8.674;2022-09-16T14:20:59;99799.25;;;24.58
18713;BMP280;9485;49.386;8.674;2022-09-16T14:26:23;99804.53;;;24.33
18713;BMP280;9485;49.386;8.674;2022-09-16T14:31:44;99809.75;;;23.80
18713;BMP280;9485;49.386;8.674;2022-09-16T14:37:05;99817.09;;;23.28
18713;BMP280;9485;49.386;8.674;2022-09-16T14:42:28;99808.19;;;22.90
18713;BMP280;9485;49.386;8.674;2022-09-16T14:47:52;99810.28;;;22.64
18713;BMP280;9485;49.386;8.674;2022-09-16T14:53:28;99810.88;;;22.45
18713;BMP280;9485;49.386;8.674;2022-09-16T14:58:52;99807.66;;;22.24
18713;BMP280;9485;49.386;8.674;2022-09-16T15:04:22;99817.69;;;21.99
18713;BMP280;9485;49.386;8.674;2022-09-16T15:09:51;99808.56;;;21.69
18713;BMP280;9485;49.386;8.674;2022-09-16T15:15:25;99830.28;;;21.30
18713;BMP280;9485;49.386;8.674;2022-09-16T15:20:52;99821.31;;;20.95
18713;BMP280;9485;49.386;8.674;2022-09-16T15:26:18;99836.94;;;20.62
18713;BMP280;9485;49.386;8.674;2022-09-16T15:31:42;99843.19;;;20.14
18713;BMP280;9485;49.386;8.674;2022-09-16T15:37:04;99846.09;;;19.69
18713;BMP280;9485;49.386;8.674;2022-09-16T15:42:24;99843.03;;;19.45
18713;BMP280;9485;49.386;8.674;2022-09-16T15:47:57;99840.13;;;19.30
18713;BMP280;9485;49.386;8.674;2022-09-16T15:53:34;99844.50;;;19.23
18713;BMP280;9485;49.386;8.674;2022-09-16T15:59:00;99847.16;;;19.14
18713;BMP280;9485;49.386;8.674;2022-09-16T16:04:27;99853.41;;;19.05
18713;BMP280;9485;49.386;8.674;2022-09-16T16:09:49;99858.91;;;18.95
18713;BMP280;9485;49.386;8.674;2022-09-16T16:15:11;99854.69;;;18.89
18713;BMP280;9485;49.386;8.674;2022-09-16T16:20:36;99851.03;;;18.81
18713;BMP280;9485;49.386;8.674;2022-09-16T16:25:58;99853.91;;;18.81
18713;BMP280;9485;49.386;8.674;2022-09-16T16:31:19;99866.47;;;18.78
18713;BMP280;9485;49.386;8.674;2022-09-16T16:36:41;99863.97;;;18.75
18713;BMP280;9485;49.386;8.674;2022-09-16T16:42:01;99855.75;;;18.64
18713;BMP280;9485;49.386;8.674;2022-09-16T16:47:24;99865.78;;;18.50
18713;BMP280;9485;49.386;8.674;2022-09-16T16:52:49;99860.03;;;18.42
18713;BMP280;9485;49.386;8.674;2022-09-16T16:58:12;99855.03;;;18.35
18713;BMP280;9485;49.386;8.674;2022-09-16T17:03:32;99865.22;;;18.23
18713;BMP280;9485;49.386;8.674;2022-09-16T17:08:54;99880.19;;;18.16
18713;BMP280;9485;49.386;8.674;2022-09-16T17:14:15;99890.97;;;18.03
18713;BMP280;9485;49.386;8.674;2022-09-16T17:19:35;99883.47;;;17.93
18713;BMP280;9485;49.386;8.674;2022-09-16T17:25:03;99903.97;;;17.84
18713;BMP280;9485;49.386;8.674;2022-09-16T17:30:24;99904.03;;;17.71
18713;BMP280;9485;49.386;8.674;2022-09-16T17:35:46;99896.88;;;17.57
18713;BMP280;9485;49.386;8.674;2022-09-16T17:41:10;99911.22;;;17.44
18713;BMP280;9485;49.386;8.674;2022-09-16T17:46:33;99907.06;;;17.32
18713;BMP280;9485;49.386;8.674;2022-09-16T17:51:54;99926.06;;;17.30
18713;BMP280;9485;49.386;8.674;2022-09-16T17:57:16;99924.66;;;17.23
18713;BMP280;9485;49.386;8.674;2022-09-16T18:02:36;99917.44;;;17.09
18713;BMP280;9485;49.386;8.674;2022-09-16T18:07:57;99911.88;;;17.04
18713;BMP280;9485;49.386;8.674;2022-09-16T18:13:19;99908.16;;;16.96
18713;BMP280;9485;49.386;8.674;2022-09-16T18:18:42;99916.81;;;16.90
18713;BMP280;9485;49.386;8.674;2022-09-16T18:24:04;99934.50;;;16.89
18713;BMP280;9485;49.386;8.674;2022-09-16T18:29:30;99930.44;;;16.84
18713;BMP280;9485;49.386;8.674;2022-09-16T18:34:51;99942.75;;;16.79
18713;BMP280;9485;49.386;8.674;2022-09-16T18:40:12;99951.97;;;16.72
18713;BMP280;9485;49.386;8.674;2022-09-16T18:45:34;99950.75;;;16.68
18713;BMP280;9485;49.386;8.674;2022-09-16T18:50:55;99956.03;;;16.64
18713;BMP280;9485;49.386;8.674;2022-09-16T18:56:20;99954.38;;;16.55
18713;BMP280;9485;49.386;8.674;2022-09-16T19:01:43;99952.72;;;16.47
18713;BMP280;9485;49.386;8.674;2022-09-16T19:07:13;99946.72;;;16.38
18713;BMP280;9485;49.386;8.674;2022-09-16T19:12:35;99959.31;;;16.29
18713;BMP280;9485;49.386;8.674;2022-09-16T19:17:57;99964.84;;;16.22
18713;BMP280;9485;49.386;8.674;2022-09-16T19:23:18;99952.56;;;16.14
18713;BMP280;9485;49.386;8.674;2022-09-16T19:28:39;99954.75;;;16.08
18713;BMP280;9485;49.386;8.674;2022-09-16T19:34:02;99963.50;;;15.97
18713;BMP280;9485;49.386;8.674;2022-09-16T19:39:24;99966.75;;;15.88
18713;BMP280;9485;49.386;8.674;2022-09-16T19:44:45;99975.94;;;15.81
18713;BMP280;9485;49.386;8.674;2022-09-16T19:50:07;99975.25;;;15.75
18713;BMP280;9485;49.386;8.674;2022-09-16T19:55:35;99990.56;;;15.72
18713;BMP280;9485;49.386;8.674;2022-09-16T20:01:00;99988.50;;;15.73
18713;BMP280;9485;49.386;8.674;2022-09-16T20:06:25;99981.03;;;15.70
18713;BMP280;9485;49.386;8.674;2022-09-16T20:11:47;99993.19;;;15.70
18713;BMP280;9485;49.386;8.674;2022-09-16T20:17:09;99996.81;;;15.71
18713;BMP280;9485;49.386;8.674;2022-09-16T20:22:31;100005.88;;;15.69
18713;BMP280;9485;49.386;8.674;2022-09-16T20:27:52;100002.38;;;15.63
18713;BMP280;9485;49.386;8.674;2022-09-16T20:33:12;100006.03;;;15.58
18713;BMP280;9485;49.386;8.674;2022-09-16T20:38:36;100009.75;;;15.53
18713;BMP280;9485;49.386;8.674;2022-09-16T20:43:58;100017.84;;;15.49
18713;BMP280;9485;49.386;8.674;2022-09-16T20:49:19;100011.16;;;15.47
18713;BMP280;9485;49.386;8.674;2022-09-16T20:54:42;100014.53;;;15.45
18713;BMP280;9485;49.386;8.674;2022-09-16T21:00:04;100021.00;;;15.46
18713;BMP280;9485;49.386;8.674;2022-09-16T21:05:24;100023.59;;;15.44
18713;BMP280;9485;49.386;8.674;2022-09-16T21:10:46;100019.53;;;15.39
18713;BMP280;9485;49.386;8.674;2022-09-16T21:16:10;100034.63;;;15.34
18713;BMP280;9485;49.386;8.674;2022-09-16T21:21:31;100028.44;;;15.30
18713;BMP280;9485;49.386;8.674;2022-09-16T21:26:53;100034.44;;;15.27
18713;BMP280;9485;49.386;8.674;2022-09-16T21:32:14;100043.03;;;15.21
18713;BMP280;9485;49.386;8.674;2022-09-16T21:37:35;100039.72;;;15.17
18713;BMP280;9485;49.386;8.674;2022-09-16T21:42:57;100045.69;;;15.14
18713;BMP280;9485;49.386;8.674;2022-09-16T21:48:18;100049.69;;;15.05
18713;BMP280;9485;49.386;8.674;2022-09-16T21:53:40;100049.22;;;15.01
18713;BMP280;9485;49.386;8.674;2022-09-16T21:59:03;100054.00;;;14.94
18713;BMP280;9485;49.386;8.674;2022-09-16T22:04:24;100061.78;;;14.88
18713;BMP280;9485;49.386;8.674;2022-09-16T22:09:45;100062.69;;;14.77
18713;BMP280;9485;49.386;8.674;2022-09-16T22:15:08;100066.41;;;14.67
18713;BMP280;9485;49.386;8.674;2022-09-16T22:20:29;100065.72;;;14.61
18713;BMP280;9485;49.386;8.674;2022-09-16T22:25:50;100064.47;;;14.56
18713;BMP280;9485;49.386;8.674;2022-09-16T22:31:15;100070.69;;;14.55
18713;BMP280;9485;49.386;8.674;2022-09-16T22:36:37;100065.78;;;14.55
18713;BMP280;9485;49.386;8.674;2022-09-16T22:41:58;100060.84;;;14.56
18713;BMP280;9485;49.386;8.674;2022-09-16T22:47:20;100065.50;;;14.59
18713;BMP280;9485;49.386;8.674;2022-09-16T22:52:40;100058.47;;;14.60
18713;BMP280;9485;49.386;8.674;2022-09-16T22:58:01;100068.78;;;14.63
18713;BMP280;9485;49.386;8.674;2022-09-16T23:03:23;100063.34;;;14.65
18713;BMP280;9485;49.386;8.674;2022-09-16T23:08:44;100061.56;;;14.62
18713;BMP280;9485;49.386;8.674;2022-09-16T23:14:05;100060.09;;;14.55
18713;BMP280;9485;49.386;8.674;2022-09-16T23:19:30;100069.22;;;14.48
18713;BMP280;9485;49.386;8.674;2022-09-16T23:24:51;100063.09;;;14.39
18713;BMP280;9485;49.386;8.674;2022-09-16T23:30:12;100067.84;;;14.31
18713;BMP280;9485;49.386;8.674;2022-09-16T23:35:34;100058.09;;;14.21
18713;BMP280;9485;49.386;8.674;2022-09-16T23:40:55;100058.44;;;14.12
18713;BMP280;9485;49.386;8.674;2022-09-16T23:46:20;100068.03;;;14.04
18713;BMP280;9485;49.386;8.674;2022-09-16T23:51:43;100063.22;;;13.93
18713;BMP280;9485;49.386;8.674;2022-09-16T23:57:04;100072.81;;;13.85
